sensor_id;sensor_type;location;lat;lon;timestamp;temperature;humidity
14733;DHT22;7457;50.960;6.830;2022-11-11T00:01:46;8.90;99.90
14733;DHT22;7457;50.960;6.830;2022-11-11T00:04:12;8.90;99.90
14733;DHT22;7457;50.960;6.830;2022-11-11T00:06:38;9.00;99.90
14733;DHT22;7457;50.960;6.830;2022-11-11T00:09:03;9.00;99.90
14733;DHT22;7457;50.960;6.830;2022-11-11T00:11:29;9.00;99.90
14733;DHT22;7457;50.960;6.830;2022-11-11T00:13:54;9.00;99.90
14733;DHT22;7457;50.960;6.830;2022-11-11T00:16:20;9.00;99.90
14733;DHT22;7457;50.960;6.830;2022-11-11T00:18:46;9.00;99.90
14733;DHT22;7457;50.960;6.830;2022-11-11T00:21:31;9.00;99.90
14733;DHT22;7457;50.960;6.830;2022-11-11T00:24:03;8.90;99.90
14733;DHT22;7457;50.960;6.830;2022-11-11T00:26:47;8.90;99.90
14733;DHT22;7457;50.960;6.830;2022-11-11T00:29:13;8.90;99.90
14733;DHT22;7457;50.960;6.830;2022-11-11T00:31:39;8.80;99.90
14733;DHT22;7457;50.960;6.830;2022-11-11T00:34:24;8.80;99.90
14733;DHT22;7457;50.960;6.830;2022-11-11T00:36:50;8.80;99.90
14733;DHT22;7457;50.960;6.830;2022-11-11T00:39:15;8.80;99.90
14733;DHT22;7457;50.960;6.830;2022-11-11T00:41:41;8.80;99.90
14733;DHT22;7457;50.960;6.830;2022-11-11T00:44:07;8.80;99.90
14733;DHT22;7457;50.960;6.830;2022-11-11T00:46:32;8.80;99.90
14733;DHT22;7457;50.960;6.830;2022-11-11T00:49:16;8.80;99.90
14733;DHT22;7457;50.960;6.830;2022-11-11T00:52:01;8.80;99.90
14733;DHT22;7457;50.960;6.830;2022-11-11T00:54:26;8.80;99.90
14733;DHT22;7457;50.960;6.830;2022-11-11T00:56:52;8.70;99.90
14733;DHT22;7457;50.960;6.830;2022-11-11T00:59:17;8.80;99.90
14733;DHT22;7457;50.960;6.830;2022-11-11T01:01:43;8.70;99.90
14733;DHT22;7457;50.960;6.830;2022-11-11T01:04:09;8.80;99.90
14733;DHT22;7457;50.960;6.830;2022-11-11T01:06:35;8.70;99.90
14733;DHT22;7457;50.960;6.830;2022-11-11T01:09:05;8.70;99.90
14733;DHT22;7457;50.960;6.830;2022-11-11T01:11:31;8.70;99.90
14733;DHT22;7457;50.960;6.830;2022-11-11T01:13:57;8.70;99.90
14733;DHT22;7457;50.960;6.830;2022-11-11T01:16:25;8.70;99.90
14733;DHT22;7457;50.960;6.830;2022-11-11T01:18:52;8.60;99.90
14733;DHT22;7457;50.960;6.830;2022-11-11T01:21:20;8.70;99.90
14733;DHT22;7457;50.960;6.830;2022-11-11T01:23:47;8.60;99.90
14733;DHT22;7457;50.960;6.830;2022-11-11T01:28:40;8.60;99.90
14733;DHT22;7457;50.960;6.830;2022-11-11T01:31:08;8.70;99.90
14733;DHT22;7457;50.960;6.830;2022-11-11T01:33:34;8.60;99.90
14733;DHT22;7457;50.960;6.830;2022-11-11T01:36:09;8.60;99.90
14733;DHT22;7457;50.960;6.830;2022-11-11T01:38:36;8.60;99.90
14733;DHT22;7457;50.960;6.830;2022-11-11T01:41:03;8.50;99.90
14733;DHT22;7457;50.960;6.830;2022-11-11T01:43:49;8.50;99.90
14733;DHT22;7457;50.960;6.830;2022-11-11T01:47:02;8.50;99.90
14733;DHT22;7457;50.960;6.830;2022-11-11T01:55:12;8.30;99.90
14733;DHT22;7457;50.960;6.830;2022-11-11T02:00:10;8.20;99.90
14733;DHT22;7457;50.960;6.830;2022-11-11T02:02:52;8.20;99.90
14733;DHT22;7457;50.960;6.830;2022-11-11T02:05:21;8.20;99.90
14733;DHT22;7457;50.960;6.830;2022-11-11T02:08:11;8.20;99.90
14733;DHT22;7457;50.960;6.830;2022-11-11T02:10:40;8.20;99.90
14733;DHT22;7457;50.960;6.830;2022-11-11T02:13:12;8.30;99.90
14733;DHT22;7457;50.960;6.830;2022-11-11T02:15:57;8.30;99.90
14733;DHT22;7457;50.960;6.830;2022-11-11T02:18:23;8.30;99.90
14733;DHT22;7457;50.960;6.830;2022-11-11T02:20:49;8.30;99.90
14733;DHT22;7457;50.960;6.830;2022-11-11T02:23:40;8.30;99.90
14733;DHT22;7457;50.960;6.830;2022-11-11T02:26:10;8.30;99.90
14733;DHT22;7457;50.960;6.830;2022-11-11T02:28:38;8.30;99.90
14733;DHT22;7457;50.960;6.830;2022-11-11T02:31:04;8.20;99.90
14733;DHT22;7457;50.960;6.830;2022-11-11T02:33:29;8.20;99.90
14733;DHT22;7457;50.960;6.830;2022-11-11T02:35:58;8.10;99.90
14733;DHT22;7457;50.960;6.830;2022-11-11T02:38:25;8.10;99.90
14733;DHT22;7457;50.960;6.830;2022-11-11T02:40:51;8.10;99.90
14733;DHT22;7457;50.960;6.830;2022-11-11T02:43:35;8.00;99.90
14733;DHT22;7457;50.960;6.830;2022-11-11T02:46:03;8.00;99.90
14733;DHT22;7457;50.960;6.830;2022-11-11T02:48:29;7.90;99.90
14733;DHT22;7457;50.960;6.830;2022-11-11T02:50:55;8.00;99.90
14733;DHT22;7457;50.960;6.830;2022-11-11T02:53:21;7.90;99.90
14733;DHT22;7457;50.960;6.830;2022-11-11T02:55:47;7.90;99.90
14733;DHT22;7457;50.960;6.830;2022-11-11T02:58:14;7.90;99.90
14733;DHT22;7457;50.960;6.830;2022-11-11T03:00:39;7.90;99.90
14733;DHT22;7457;50.960;6.830;2022-11-11T03:03:07;7.90;99.90
14733;DHT22;7457;50.960;6.830;2022-11-11T03:05:32;7.90;99.90
14733;DHT22;7457;50.960;6.830;2022-11-11T03:07:58;7.90;99.90
14733;DHT22;7457;50.960;6.830;2022-11-11T03:10:24;7.90;99.90
14733;DHT22;7457;50.960;6.830;2022-11-11T03:12:49;7.80;99.90
14733;DHT22;7457;50.960;6.830;2022-11-11T03:15:15;7.80;99.90
14733;DHT22;7457;50.960;6.830;2022-11-11T03:17:41;7.80;99.90
14733;DHT22;7457;50.960;6.830;2022-11-11T03:20:12;7.80;99.90
14733;DHT22;7457;50.960;6.830;2022-11-11T03:23:09;7.80;99.90
14733;DHT22;7457;50.960;6.830;2022-11-11T03:25:43;7.70;99.90
14733;DHT22;7457;50.960;6.830;2022-11-11T03:28:20;7.70;99.90
14733;DHT22;7457;50.960;6.830;2022-11-11T03:30:48;7.70;99.90
14733;DHT22;7457;50.960;6.830;2022-11-11T03:33:17;7.70;99.90
14733;DHT22;7457;50.960;6.830;2022-11-11T03:35:45;7.70;99.90
14733;DHT22;7457;50.960;6.830;2022-11-11T03:38:12;7.70;99.90
14733;DHT22;7457;50.960;6.830;2022-11-11T03:40:57;7.70;99.90
14733;DHT22;7457;50.960;6.830;2022-11-11T03:43:28;7.80;99.90
14733;DHT22;7457;50.960;6.830;2022-11-11T03:45:56;7.70;99.90
14733;DHT22;7457;50.960;6.830;2022-11-11T03:48:23;7.80;99.90
14733;DHT22;7457;50.960;6.830;2022-11-11T03:50:49;7.80;99.90
14733;DHT22;7457;50.960;6.830;2022-11-11T03:53:16;7.80;99.90
14733;DHT22;7457;50.960;6.830;2022-11-11T03:55:44;7.80;99.90
14733;DHT22;7457;50.960;6.830;2022-11-11T03:58:09;7.80;99.90
14733;DHT22;7457;50.960;6.830;2022-11-11T04:00:36;7.80;99.90
14733;DHT22;7457;50.960;6.830;2022-11-11T04:03:19;7.80;99.90
14733;DHT22;7457;50.960;6.830;2022-11-11T04:06:04;7.80;99.90
14733;DHT22;7457;50.960;6.830;2022-11-11T04:08:48;7.80;99.90
14733;DHT22;7457;50.960;6.830;2022-11-11T04:11:39;7.80;99.90
14733;DHT22;7457;50.960;6.830;2022-11-11T04:14:12;7.80;99.90
14733;DHT22;7457;50.960;6.830;2022-11-11T04:16:57;7.80;99.90
14733;DHT22;7457;50.960;6.830;2022-11-11T04:19:23;7.80;99.90
14733;DHT22;7457;50.960;6.830;2022-11-11T04:22:07;7.70;99.90
14733;DHT22;7457;50.960;6.830;2022-11-11T04:24:33;7.70;99.90
14733;DHT22;7457;50.960;6.830;2022-11-11T04:27:18;7.70;99.90
14733;DHT22;7457;50.960;6.830;2022-11-11T04:29:44;7.70;99.90
14733;DHT22;7457;50.960;6.830;2022-11-11T04:32:23;7.70;99.90
14733;DHT22;7457;50.960;6.830;2022-11-11T04:35:08;7.70;99.90
14733;DHT22;7457;50.960;6.830;2022-11-11T04:37:36;7.70;99.90
14733;DHT22;7457;50.960;6.830;2022-11-11T04:40:09;7.70;99.90
14733;DHT22;7457;50.960;6.830;2022-11-11T04:42:53;7.70;99.90
14733;DHT22;7457;50.960;6.830;2022-11-11T04:45:19;7.70;99.90
14733;DHT22;7457;50.960;6.830;2022-11-11T04:48:09;7.70;99.90
14733;DHT22;7457;50.960;6.830;2022-11-11T04:50:37;7.70;99.90
14733;DHT22;7457;50.960;6.830;2022-11-11T04:53:04;7.70;99.90
14733;DHT22;7457;50.960;6.830;2022-11-11T04:55:30;7.70;99.90
14733;DHT22;7457;50.960;6.830;2022-11-11T04:58:19;7.70;99.90
14733;DHT22;7457;50.960;6.830;2022-11-11T05:00:45;7.70;99.90
14733;DHT22;7457;50.960;6.830;2022-11-11T05:03:12;7.70;99.90
14733;DHT22;7457;50.960;6.830;2022-11-11T05:08:27;7.60;99.90
14733;DHT22;7457;50.960;6.830;2022-11-11T05:11:12;7.50;99.90
14733;DHT22;7457;50.960;6.830;2022-11-11T05:13:37;7.50;99.90
14733;DHT22;7457;50.960;6.830;2022-11-11T05:16:25;7.40;99.90
14733;DHT22;7457;50.960;6.830;2022-11-11T05:19:10;7.40;99.90
14733;DHT22;7457;50.960;6.830;2022-11-11T05:21:56;7.40;99.90
14733;DHT22;7457;50.960;6.830;2022-11-11T05:24:23;7.40;99.90
14733;DHT22;7457;50.960;6.830;2022-11-11T05:27:07;7.40;99.90
14733;DHT22;7457;50.960;6.830;2022-11-11T05:29:33;7.40;99.90
14733;DHT22;7457;50.960;6.830;2022-11-11T05:32:00;7.40;99.90
14733;DHT22;7457;50.960;6.830;2022-11-11T05:34:26;7.40;99.90
14733;DHT22;7457;50.960;6.830;2022-11-11T05:36:51;7.40;99.90
14733;DHT22;7457;50.960;6.830;2022-11-11T05:39:17;7.40;99.90
14733;DHT22;7457;50.960;6.830;2022-11-11T05:41:43;7.30;99.90
14733;DHT22;7457;50.960;6.830;2022-11-11T05:44:08;7.30;99.90
14733;DHT22;7457;50.960;6.830;2022-11-11T05:46:34;7.30;99.90
14733;DHT22;7457;50.960;6.830;2022-11-11T05:48:59;7.30;99.90
14733;DHT22;7457;50.960;6.830;2022-11-11T05:51:41;7.30;99.90
14733;DHT22;7457;50.960;6.830;2022-11-11T05:54:06;7.20;99.90
14733;DHT22;7457;50.960;6.830;2022-11-11T05:56:32;7.20;99.90
14733;DHT22;7457;50.960;6.830;2022-11-11T05:58:57;7.20;99.90
14733;DHT22;7457;50.960;6.830;2022-11-11T06:01:23;7.20;99.90
14733;DHT22;7457;50.960;6.830;2022-11-11T06:03:49;7.20;99.90
14733;DHT22;7457;50.960;6.830;2022-11-11T06:06:14;7.20;99.90
14733;DHT22;7457;50.960;6.830;2022-11-11T06:08:40;7.20;99.90
14733;DHT22;7457;50.960;6.830;2022-11-11T06:11:06;7.30;99.90
14733;DHT22;7457;50.960;6.830;2022-11-11T06:13:32;7.30;99.90
14733;DHT22;7457;50.960;6.830;2022-11-11T06:15:58;7.30;99.90
14733;DHT22;7457;50.960;6.830;2022-11-11T06:18:23;7.30;99.90
14733;DHT22;7457;50.960;6.830;2022-11-11T06:20:53;7.40;99.90
14733;DHT22;7457;50.960;6.830;2022-11-11T06:23:19;7.40;99.90
14733;DHT22;7457;50.960;6.830;2022-11-11T06:25:52;7.30;99.90
14733;DHT22;7457;50.960;6.830;2022-11-11T06:28:37;7.40;99.90
14733;DHT22;7457;50.960;6.830;2022-11-11T06:31:03;7.40;99.90
14733;DHT22;7457;50.960;6.830;2022-11-11T06:33:29;7.40;99.90
14733;DHT22;7457;50.960;6.830;2022-11-11T06:35:55;7.30;99.90
14733;DHT22;7457;50.960;6.830;2022-11-11T06:38:20;7.30;99.90
14733;DHT22;7457;50.960;6.830;2022-11-11T06:40:46;7.30;99.90
14733;DHT22;7457;50.960;6.830;2022-11-11T06:43:12;7.30;99.90
14733;DHT22;7457;50.960;6.830;2022-11-11T06:45:38;7.20;99.90
14733;DHT22;7457;50.960;6.830;2022-11-11T06:48:05;7.20;99.90
14733;DHT22;7457;50.960;6.830;2022-11-11T06:50:34;7.10;99.90
14733;DHT22;7457;50.960;6.830;2022-11-11T06:53:08;7.10;99.90
14733;DHT22;7457;50.960;6.830;2022-11-11T06:55:35;7.10;99.90
14733;DHT22;7457;50.960;6.830;2022-11-11T06:58:22;7.10;99.90
14733;DHT22;7457;50.960;6.830;2022-11-11T07:00:48;7.10;99.90
14733;DHT22;7457;50.960;6.830;2022-11-11T07:03:16;7.10;99.90
14733;DHT22;7457;50.960;6.830;2022-11-11T07:05:43;7.10;99.90
14733;DHT22;7457;50.960;6.830;2022-11-11T07:08:14;7.20;99.90
14733;DHT22;7457;50.960;6.830;2022-11-11T07:10:44;7.30;99.90
14733;DHT22;7457;50.960;6.830;2022-11-11T07:13:10;7.30;99.90
14733;DHT22;7457;50.960;6.830;2022-11-11T07:15:36;7.40;99.90
14733;DHT22;7457;50.960;6.830;2022-11-11T07:18:02;7.50;99.90
14733;DHT22;7457;50.960;6.830;2022-11-11T07:20:28;7.60;99.90
14733;DHT22;7457;50.960;6.830;2022-11-11T07:22:54;7.60;99.90
14733;DHT22;7457;50.960;6.830;2022-11-11T07:25:20;7.70;99.90
14733;DHT22;7457;50.960;6.830;2022-11-11T07:27:46;7.80;99.90
14733;DHT22;7457;50.960;6.830;2022-11-11T07:30:12;7.80;99.90
14733;DHT22;7457;50.960;6.830;2022-11-11T07:32:48;7.90;99.90
14733;DHT22;7457;50.960;6.830;2022-11-11T07:35:14;7.90;99.90
14733;DHT22;7457;50.960;6.830;2022-11-11T07:37:40;8.00;99.90
14733;DHT22;7457;50.960;6.830;2022-11-11T07:40:07;8.00;99.90
14733;DHT22;7457;50.960;6.830;2022-11-11T07:42:39;8.10;99.90
14733;DHT22;7457;50.960;6.830;2022-11-11T07:45:06;8.20;99.90
14733;DHT22;7457;50.960;6.830;2022-11-11T07:47:32;8.20;99.90
14733;DHT22;7457;50.960;6.830;2022-11-11T07:49:59;8.30;99.90
14733;DHT22;7457;50.960;6.830;2022-11-11T07:52:25;8.30;99.90
14733;DHT22;7457;50.960;6.830;2022-11-11T07:54:50;8.40;99.90
14733;DHT22;7457;50.960;6.830;2022-11-11T07:57:16;8.50;99.90
14733;DHT22;7457;50.960;6.830;2022-11-11T07:59:41;8.50;99.90
14733;DHT22;7457;50.960;6.830;2022-11-11T08:02:11;8.60;99.90
14733;DHT22;7457;50.960;6.830;2022-11-11T08:04:37;8.60;99.90
14733;DHT22;7457;50.960;6.830;2022-11-11T08:07:02;8.70;99.90
14733;DHT22;7457;50.960;6.830;2022-11-11T08:09:28;8.80;99.90
14733;DHT22;7457;50.960;6.830;2022-11-11T08:11:53;8.80;99.90
14733;DHT22;7457;50.960;6.830;2022-11-11T08:14:37;8.90;99.90
14733;DHT22;7457;50.960;6.830;2022-11-11T08:17:03;8.90;99.90
14733;DHT22;7457;50.960;6.830;2022-11-11T08:19:29;8.90;99.90
14733;DHT22;7457;50.960;6.830;2022-11-11T08:21:54;9.00;99.90
14733;DHT22;7457;50.960;6.830;2022-11-11T08:24:20;9.00;99.90
14733;DHT22;7457;50.960;6.830;2022-11-11T08:26:46;9.10;99.90
14733;DHT22;7457;50.960;6.830;2022-11-11T08:29:12;9.20;99.90
14733;DHT22;7457;50.960;6.830;2022-11-11T08:31:37;9.20;99.90
14733;DHT22;7457;50.960;6.830;2022-11-11T08:34:04;9.20;99.90
14733;DHT22;7457;50.960;6.830;2022-11-11T08:36:29;9.30;99.90
14733;DHT22;7457;50.960;6.830;2022-11-11T08:38:55;9.40;99.90
14733;DHT22;7457;50.960;6.830;2022-11-11T08:41:21;9.50;99.90
14733;DHT22;7457;50.960;6.830;2022-11-11T08:43:50;9.50;99.90
14733;DHT22;7457;50.960;6.830;2022-11-11T08:46:16;9.60;99.90
14733;DHT22;7457;50.960;6.830;2022-11-11T08:48:42;9.60;99.90
14733;DHT22;7457;50.960;6.830;2022-11-11T08:51:07;9.60;99.90
14733;DHT22;7457;50.960;6.830;2022-11-11T08:53:33;9.70;99.90
14733;DHT22;7457;50.960;6.830;2022-11-11T08:56:01;9.70;99.90
14733;DHT22;7457;50.960;6.830;2022-11-11T08:58:27;9.70;99.90
14733;DHT22;7457;50.960;6.830;2022-11-11T09:00:53;9.80;99.90
14733;DHT22;7457;50.960;6.830;2022-11-11T09:03:18;9.80;99.90
14733;DHT22;7457;50.960;6.830;2022-11-11T09:05:44;9.90;99.90
14733;DHT22;7457;50.960;6.830;2022-11-11T09:08:12;10.00;99.90
14733;DHT22;7457;50.960;6.830;2022-11-11T09:10:37;10.10;99.90
14733;DHT22;7457;50.960;6.830;2022-11-11T09:13:04;10.20;99.90
14733;DHT22;7457;50.960;6.830;2022-11-11T09:15:30;10.30;99.90
14733;DHT22;7457;50.960;6.830;2022-11-11T09:17:55;10.30;99.90
14733;DHT22;7457;50.960;6.830;2022-11-11T09:20:24;10.40;99.90
14733;DHT22;7457;50.960;6.830;2022-11-11T09:22:49;10.40;99.90
14733;DHT22;7457;50.960;6.830;2022-11-11T09:25:16;10.50;99.90
14733;DHT22;7457;50.960;6.830;2022-11-11T09:27:42;10.60;99.90
14733;DHT22;7457;50.960;6.830;2022-11-11T09:30:09;10.70;99.90
14733;DHT22;7457;50.960;6.830;2022-11-11T09:32:35;10.90;99.90
14733;DHT22;7457;50.960;6.830;2022-11-11T09:35:01;11.10;99.90
14733;DHT22;7457;50.960;6.830;2022-11-11T09:37:27;11.30;99.90
14733;DHT22;7457;50.960;6.830;2022-11-11T09:39:53;11.50;99.90
14733;DHT22;7457;50.960;6.830;2022-11-11T09:50:29;12.20;99.90
14733;DHT22;7457;50.960;6.830;2022-11-11T09:55:32;12.80;99.90
14733;DHT22;7457;50.960;6.830;2022-11-11T10:00:37;13.30;99.90
14733;DHT22;7457;50.960;6.830;2022-11-11T10:03:19;13.40;99.90
14733;DHT22;7457;50.960;6.830;2022-11-11T10:06:02;13.30;99.90
14733;DHT22;7457;50.960;6.830;2022-11-11T10:08:58;13.30;99.90
14733;DHT22;7457;50.960;6.830;2022-11-11T10:14:32;13.50;99.90
14733;DHT22;7457;50.960;6.830;2022-11-11T10:17:12;13.70;99.90
14733;DHT22;7457;50.960;6.830;2022-11-11T10:20:17;14.00;99.90
14733;DHT22;7457;50.960;6.830;2022-11-11T10:22:45;14.30;99.90
14733;DHT22;7457;50.960;6.830;2022-11-11T10:25:20;14.30;99.90
14733;DHT22;7457;50.960;6.830;2022-11-11T10:27:48;14.30;99.90
14733;DHT22;7457;50.960;6.830;2022-11-11T10:30:27;14.30;99.90
14733;DHT22;7457;50.960;6.830;2022-11-11T10:33:02;14.40;99.90
14733;DHT22;7457;50.960;6.830;2022-11-11T10:35:30;14.20;99.90
14733;DHT22;7457;50.960;6.830;2022-11-11T10:38:22;14.20;99.90
14733;DHT22;7457;50.960;6.830;2022-11-11T10:40:52;14.20;99.90
14733;DHT22;7457;50.960;6.830;2022-11-11T10:43:27;14.10;99.90
14733;DHT22;7457;50.960;6.830;2022-11-11T10:46:15;14.20;99.90
14733;DHT22;7457;50.960;6.830;2022-11-11T10:49:09;14.40;99.90
14733;DHT22;7457;50.960;6.830;2022-11-11T10:51:49;14.50;99.90
14733;DHT22;7457;50.960;6.830;2022-11-11T10:54:21;14.70;99.90
14733;DHT22;7457;50.960;6.830;2022-11-11T10:56:57;14.80;99.90
14733;DHT22;7457;50.960;6.830;2022-11-11T11:02:29;15.20;99.90
14733;DHT22;7457;50.960;6.830;2022-11-11T11:05:33;15.70;99.90
14733;DHT22;7457;50.960;6.830;2022-11-11T11:07:46;16.20;99.90
14733;DHT22;7457;50.960;6.830;2022-11-11T11:10:13;16.40;99.40
14733;DHT22;7457;50.960;6.830;2022-11-11T11:12:53;16.40;99.00
14733;DHT22;7457;50.960;6.830;2022-11-11T11:15:24;16.40;98.30
14733;DHT22;7457;50.960;6.830;2022-11-11T11:20:29;16.20;98.10
14733;DHT22;7457;50.960;6.830;2022-11-11T11:22:56;16.10;98.10
14733;DHT22;7457;50.960;6.830;2022-11-11T11:25:25;16.10;97.50
14733;DHT22;7457;50.960;6.830;2022-11-11T11:30:31;16.30;97.50
14733;DHT22;7457;50.960;6.830;2022-11-11T11:32:59;16.30;97.40
14733;DHT22;7457;50.960;6.830;2022-11-11T11:35:40;16.50;97.30
14733;DHT22;7457;50.960;6.830;2022-11-11T11:38:08;16.70;97.10
14733;DHT22;7457;50.960;6.830;2022-11-11T11:40:53;16.90;97.20
14733;DHT22;7457;50.960;6.830;2022-11-11T11:45:59;17.20;96.10
14733;DHT22;7457;50.960;6.830;2022-11-11T11:57:02;17.10;95.50
14733;DHT22;7457;50.960;6.830;2022-11-11T12:05:49;17.30;94.20
14733;DHT22;7457;50.960;6.830;2022-11-11T12:10:56;17.20;94.00
14733;DHT22;7457;50.960;6.830;2022-11-11T12:16:42;17.20;94.20
14733;DHT22;7457;50.960;6.830;2022-11-11T12:27:18;16.50;94.10
14733;DHT22;7457;50.960;6.830;2022-11-11T12:43:20;15.60;94.70
14733;DHT22;7457;50.960;6.830;2022-11-11T12:51:54;15.60;95.10
14733;DHT22;7457;50.960;6.830;2022-11-11T12:54:47;15.60;95.40
14733;DHT22;7457;50.960;6.830;2022-11-11T13:00:08;15.50;95.40
14733;DHT22;7457;50.960;6.830;2022-11-11T13:10:51;15.30;95.80
14733;DHT22;7457;50.960;6.830;2022-11-11T13:16:21;15.30;95.90
14733;DHT22;7457;50.960;6.830;2022-11-11T13:18:57;15.30;96.00
14733;DHT22;7457;50.960;6.830;2022-11-11T13:21:56;15.40;96.10
14733;DHT22;7457;50.960;6.830;2022-11-11T13:24:23;15.40;96.00
14733;DHT22;7457;50.960;6.830;2022-11-11T13:26:55;15.40;96.00
14733;DHT22;7457;50.960;6.830;2022-11-11T13:32:02;15.40;96.00
14733;DHT22;7457;50.960;6.830;2022-11-11T13:34:31;15.40;95.80
14733;DHT22;7457;50.960;6.830;2022-11-11T13:37:03;15.40;95.70
14733;DHT22;7457;50.960;6.830;2022-11-11T13:39:33;15.40;95.70
14733;DHT22;7457;50.960;6.830;2022-11-11T13:42:02;15.40;95.80
14733;DHT22;7457;50.960;6.830;2022-11-11T13:44:44;15.50;95.50
14733;DHT22;7457;50.960;6.830;2022-11-11T13:47:43;15.40;95.40
14733;DHT22;7457;50.960;6.830;2022-11-11T13:50:31;15.50;95.60
14733;DHT22;7457;50.960;6.830;2022-11-11T13:55:38;15.60;95.10
14733;DHT22;7457;50.960;6.830;2022-11-11T13:58:06;15.50;95.20
14733;DHT22;7457;50.960;6.830;2022-11-11T14:00:42;15.60;95.40
14733;DHT22;7457;50.960;6.830;2022-11-11T14:05:43;15.50;95.20
14733;DHT22;7457;50.960;6.830;2022-11-11T14:08:09;15.60;95.40
14733;DHT22;7457;50.960;6.830;2022-11-11T14:10:57;15.60;95.40
14733;DHT22;7457;50.960;6.830;2022-11-11T14:15:56;15.70;95.40
14733;DHT22;7457;50.960;6.830;2022-11-11T14:20:48;15.70;95.20
14733;DHT22;7457;50.960;6.830;2022-11-11T14:33:52;15.60;94.50
14733;DHT22;7457;50.960;6.830;2022-11-11T14:36:40;15.60;94.60
14733;DHT22;7457;50.960;6.830;2022-11-11T14:41:56;15.50;94.70
14733;DHT22;7457;50.960;6.830;2022-11-11T14:49:52;15.50;94.60
14733;DHT22;7457;50.960;6.830;2022-11-11T14:57:37;15.30;94.60
14733;DHT22;7457;50.960;6.830;2022-11-11T15:02:39;15.10;94.80
14733;DHT22;7457;50.960;6.830;2022-11-11T15:05:11;15.10;94.90
14733;DHT22;7457;50.960;6.830;2022-11-11T15:13:24;14.80;94.90
14733;DHT22;7457;50.960;6.830;2022-11-11T15:21:32;14.70;95.20
14733;DHT22;7457;50.960;6.830;2022-11-11T15:24:13;14.60;95.30
14733;DHT22;7457;50.960;6.830;2022-11-11T15:32:39;14.30;95.60
14733;DHT22;7457;50.960;6.830;2022-11-11T15:35:41;14.20;95.70
14733;DHT22;7457;50.960;6.830;2022-11-11T15:38:12;14.10;95.80
14733;DHT22;7457;50.960;6.830;2022-11-11T15:40:49;14.00;96.10
14733;DHT22;7457;50.960;6.830;2022-11-11T15:43:19;13.90;96.10
14733;DHT22;7457;50.960;6.830;2022-11-11T15:45:53;13.80;96.30
14733;DHT22;7457;50.960;6.830;2022-11-11T15:48:28;13.80;96.60
14733;DHT22;7457;50.960;6.830;2022-11-11T15:50:54;13.70;96.90
14733;DHT22;7457;50.960;6.830;2022-11-11T15:53:26;13.60;97.10
14733;DHT22;7457;50.960;6.830;2022-11-11T15:55:56;13.50;97.40
14733;DHT22;7457;50.960;6.830;2022-11-11T15:58:27;13.30;97.60
14733;DHT22;7457;50.960;6.830;2022-11-11T16:00:54;13.20;97.80
14733;DHT22;7457;50.960;6.830;2022-11-11T16:05:58;13.00;98.30
14733;DHT22;7457;50.960;6.830;2022-11-11T16:08:24;13.00;98.60
14733;DHT22;7457;50.960;6.830;2022-11-11T16:10:56;12.90;98.70
14733;DHT22;7457;50.960;6.830;2022-11-11T16:13:36;12.90;98.90
14733;DHT22;7457;50.960;6.830;2022-11-11T16:16:29;12.80;99.10
14733;DHT22;7457;50.960;6.830;2022-11-11T16:19:01;12.70;99.30
14733;DHT22;7457;50.960;6.830;2022-11-11T16:24:26;12.70;99.70
14733;DHT22;7457;50.960;6.830;2022-11-11T16:26:52;12.60;99.80
14733;DHT22;7457;50.960;6.830;2022-11-11T16:29:18;12.60;99.90
14733;DHT22;7457;50.960;6.830;2022-11-11T16:31:45;12.50;99.90
14733;DHT22;7457;50.960;6.830;2022-11-11T16:37:08;12.50;99.90
14733;DHT22;7457;50.960;6.830;2022-11-11T16:39:36;12.40;99.90
14733;DHT22;7457;50.960;6.830;2022-11-11T16:42:17;12.40;99.90
14733;DHT22;7457;50.960;6.830;2022-11-11T16:44:57;12.30;99.90
14733;DHT22;7457;50.960;6.830;2022-11-11T16:50:30;12.20;99.90
14733;DHT22;7457;50.960;6.830;2022-11-11T16:53:00;12.20;99.90
14733;DHT22;7457;50.960;6.830;2022-11-11T16:55:38;12.10;99.90
14733;DHT22;7457;50.960;6.830;2022-11-11T16:58:12;12.10;99.90
14733;DHT22;7457;50.960;6.830;2022-11-11T17:00:40;12.10;99.90
14733;DHT22;7457;50.960;6.830;2022-11-11T17:03:16;12.00;99.90
14733;DHT22;7457;50.960;6.830;2022-11-11T17:10:56;11.90;99.90
14733;DHT22;7457;50.960;6.830;2022-11-11T17:13:22;11.80;99.90
14733;DHT22;7457;50.960;6.830;2022-11-11T17:15:49;11.70;99.90
14733;DHT22;7457;50.960;6.830;2022-11-11T17:18:15;11.70;99.90
14733;DHT22;7457;50.960;6.830;2022-11-11T17:20:41;11.60;99.90
14733;DHT22;7457;50.960;6.830;2022-11-11T17:23:07;11.60;99.90
14733;DHT22;7457;50.960;6.830;2022-11-11T17:25:33;11.60;99.90
14733;DHT22;7457;50.960;6.830;2022-11-11T17:27:59;11.50;99.90
14733;DHT22;7457;50.960;6.830;2022-11-11T17:30:24;11.50;99.90
14733;DHT22;7457;50.960;6.830;2022-11-11T17:32:50;11.50;99.90
14733;DHT22;7457;50.960;6.830;2022-11-11T17:35:16;11.50;99.90
14733;DHT22;7457;50.960;6.830;2022-11-11T17:37:42;11.40;99.90
14733;DHT22;7457;50.960;6.830;2022-11-11T17:40:09;11.40;99.90
14733;DHT22;7457;50.960;6.830;2022-11-11T17:42:35;11.30;99.90
14733;DHT22;7457;50.960;6.830;2022-11-11T17:45:03;11.30;99.90
14733;DHT22;7457;50.960;6.830;2022-11-11T17:47:29;11.20;99.90
14733;DHT22;7457;50.960;6.830;2022-11-11T17:49:56;11.20;99.90
14733;DHT22;7457;50.960;6.830;2022-11-11T17:52:22;11.20;99.90
14733;DHT22;7457;50.960;6.830;2022-11-11T17:54:49;11.10;99.90
14733;DHT22;7457;50.960;6.830;2022-11-11T17:57:14;11.10;99.90
14733;DHT22;7457;50.960;6.830;2022-11-11T17:59:40;11.10;99.90
14733;DHT22;7457;50.960;6.830;2022-11-11T18:02:06;11.00;99.90
14733;DHT22;7457;50.960;6.830;2022-11-11T18:04:33;11.00;99.90
14733;DHT22;7457;50.960;6.830;2022-11-11T18:06:59;11.00;99.90
14733;DHT22;7457;50.960;6.830;2022-11-11T18:09:25;11.00;99.90
14733;DHT22;7457;50.960;6.830;2022-11-11T18:11:50;11.00;99.90
14733;DHT22;7457;50.960;6.830;2022-11-11T18:14:16;11.00;99.90
14733;DHT22;7457;50.960;6.830;2022-11-11T18:16:42;10.90;99.90
14733;DHT22;7457;50.960;6.830;2022-11-11T18:19:08;10.90;99.90
14733;DHT22;7457;50.960;6.830;2022-11-11T18:21:33;10.80;99.90
14733;DHT22;7457;50.960;6.830;2022-11-11T18:24:03;10.80;99.90
14733;DHT22;7457;50.960;6.830;2022-11-11T18:26:29;10.70;99.90
14733;DHT22;7457;50.960;6.830;2022-11-11T18:28:54;10.70;99.90
14733;DHT22;7457;50.960;6.830;2022-11-11T18:31:20;10.60;99.90
14733;DHT22;7457;50.960;6.830;2022-11-11T18:33:46;10.60;99.90
14733;DHT22;7457;50.960;6.830;2022-11-11T18:36:19;10.60;99.90
14733;DHT22;7457;50.960;6.830;2022-11-11T18:38:45;10.60;99.90
14733;DHT22;7457;50.960;6.830;2022-11-11T18:41:16;10.50;99.90
14733;DHT22;7457;50.960;6.830;2022-11-11T18:43:44;10.50;99.90
14733;DHT22;7457;50.960;6.830;2022-11-11T18:46:13;10.50;99.90
14733;DHT22;7457;50.960;6.830;2022-11-11T18:48:39;10.50;99.90
14733;DHT22;7457;50.960;6.830;2022-11-11T18:51:06;10.50;99.90
14733;DHT22;7457;50.960;6.830;2022-11-11T18:53:34;10.50;99.90
14733;DHT22;7457;50.960;6.830;2022-11-11T18:56:16;10.50;99.90
14733;DHT22;7457;50.960;6.830;2022-11-11T18:58:47;10.40;99.90
14733;DHT22;7457;50.960;6.830;2022-11-11T19:01:15;10.40;99.90
14733;DHT22;7457;50.960;6.830;2022-11-11T19:04:10;10.30;99.90
14733;DHT22;7457;50.960;6.830;2022-11-11T19:06:36;10.30;99.90
14733;DHT22;7457;50.960;6.830;2022-11-11T19:09:10;10.20;99.90
14733;DHT22;7457;50.960;6.830;2022-11-11T19:11:41;10.20;99.90
14733;DHT22;7457;50.960;6.830;2022-11-11T19:14:08;10.10;99.90